sensor_id;sensor_type;location;lat;lon;timestamp;pressure;altitude;pressure_sealevel;temperature;humidity
49341;BME280;35209;51.050;13.678;2023-09-12T00:01:58;153145.50;;;17.71;85.12
49341;BME280;35209;51.050;13.678;2023-09-12T00:07:01;153141.56;;;17.70;85.77
49341;BME280;35209;51.050;13.678;2023-09-12T00:12:03;153145.50;;;17.71;85.72
49341;BME280;35209;51.050;13.678;2023-09-12T00:17:05;153174.09;;;17.82;84.78
49341;BME280;35209;51.050;13.678;2023-09-12T00:22:06;153145.50;;;17.71;85.55
49341;BME280;35209;51.050;13.678;2023-09-12T00:27:08;153136.41;;;17.68;86.38
49341;BME280;35209;51.050;13.678;2023-09-12T00:32:10;153124.72;;;17.63;86.47
49341;BME280;35209;51.050;13.678;2023-09-12T00:37:12;153062.41;;;17.38;88.07
49341;BME280;35209;51.050;13.678;2023-09-12T00:42:13;153040.38;;;17.30;88.99
49341;BME280;35209;51.050;13.678;2023-09-12T00:47:15;153102.66;;;17.54;87.44
49341;BME280;35209;51.050;13.678;2023-09-12T00:52:18;153067.63;;;17.40;87.95
49341;BME280;35209;51.050;13.678;2023-09-12T00:57:21;153019.59;;;17.22;88.79
49341;BME280;35209;51.050;13.678;2023-09-12T01:02:24;152991.06;;;17.10;89.17
49341;BME280;35209;51.050;13.678;2023-09-12T01:07:26;152982.00;;;17.07;89.42
49341;BME280;35209;51.050;13.678;2023-09-12T01:12:29;152979.41;;;17.06;89.46
49341;BME280;35209;51.050;13.678;2023-09-12T01:17:31;152962.50;;;16.99;89.57
49341;BME280;35209;51.050;13.678;2023-09-12T01:28:08;152910.66;;;16.79;90.48
49341;BME280;35209;51.050;13.678;2023-09-12T01:33:11;152928.78;;;16.86;90.25
49341;BME280;35209;51.050;13.678;2023-09-12T01:38:14;152910.66;;;16.79;91.05
49341;BME280;35209;51.050;13.678;2023-09-12T01:43:18;152914.53;;;16.80;90.84
49341;BME280;35209;51.050;13.678;2023-09-12T01:48:23;152909.38;;;16.78;90.95
49341;BME280;35209;51.050;13.678;2023-09-12T01:53:26;152858.72;;;16.58;92.34
49341;BME280;35209;51.050;13.678;2023-09-12T01:58:30;152832.78;;;16.48;93.04
49341;BME280;35209;51.050;13.678;2023-09-12T02:03:32;152853.56;;;16.56;92.69
49341;BME280;35209;51.050;13.678;2023-09-12T02:08:34;152854.84;;;16.57;92.69
49341;BME280;35209;51.050;13.678;2023-09-12T02:13:36;152809.47;;;16.39;94.18
49341;BME280;35209;51.050;13.678;2023-09-12T02:18:38;152856.13;;;16.57;92.73
49341;BME280;35209;51.050;13.678;2023-09-12T02:23:39;152810.75;;;16.39;93.94
49341;BME280;35209;51.050;13.678;2023-09-12T02:28:41;152771.81;;;16.24;95.62
49341;BME280;35209;51.050;13.678;2023-09-12T02:33:43;152725.16;;;16.06;95.33
49341;BME280;35209;51.050;13.678;2023-09-12T02:38:45;152710.91;;;16.00;96.54
49341;BME280;35209;51.050;13.678;2023-09-12T02:43:47;152757.56;;;16.19;96.33
49341;BME280;35209;51.050;13.678;2023-09-12T02:48:49;152823.72;;;16.45;93.97
49341;BME280;35209;51.050;13.678;2023-09-12T02:53:51;152756.28;;;16.18;96.11
49341;BME280;35209;51.050;13.678;2023-09-12T02:58:53;152797.78;;;16.34;95.10
49341;BME280;35209;51.050;13.678;2023-09-12T03:03:54;152720.00;;;16.04;97.21
49341;BME280;35209;51.050;13.678;2023-09-12T03:08:57;152665.53;;;15.82;99.13
49341;BME280;35209;51.050;13.678;2023-09-12T03:13:58;152639.66;;;15.72;99.65
49341;BME280;35209;51.050;13.678;2023-09-12T03:19:00;152637.00;;;15.71;99.03
49341;BME280;35209;51.050;13.678;2023-09-12T03:24:04;152665.53;;;15.82;99.20
49341;BME280;35209;51.050;13.678;2023-09-12T03:29:06;152713.50;;;16.01;97.71
49341;BME280;35209;51.050;13.678;2023-09-12T03:34:08;152665.53;;;15.82;99.17
49341;BME280;35209;51.050;13.678;2023-09-12T03:39:11;152718.72;;;16.03;97.01
49341;BME280;35209;51.050;13.678;2023-09-12T03:44:14;152639.66;;;15.72;99.29
49341;BME280;35209;51.050;13.678;2023-09-12T03:49:16;152637.00;;;15.71;100.00
49341;BME280;35209;51.050;13.678;2023-09-12T03:54:18;152687.59;;;15.91;98.48
49341;BME280;35209;51.050;13.678;2023-09-12T03:59:20;152643.50;;;15.74;99.29
49341;BME280;35209;51.050;13.678;2023-09-12T04:04:22;152626.69;;;15.67;100.00
49341;BME280;35209;51.050;13.678;2023-09-12T04:09:24;152598.09;;;15.56;100.00
49341;BME280;35209;51.050;13.678;2023-09-12T04:14:26;152570.91;;;15.45;100.00
49341;BME280;35209;51.050;13.678;2023-09-12T04:19:29;152634.44;;;15.70;99.93
49341;BME280;35209;51.050;13.678;2023-09-12T04:24:31;152638.34;;;15.72;99.21
49341;BME280;35209;51.050;13.678;2023-09-12T04:29:33;152617.56;;;15.63;99.70
49341;BME280;35209;51.050;13.678;2023-09-12T04:34:37;152591.59;;;15.53;100.00
49341;BME280;35209;51.050;13.678;2023-09-12T04:39:39;152577.38;;;15.48;100.00
49341;BME280;35209;51.050;13.678;2023-09-12T04:44:42;152559.25;;;15.41;100.00
49341;BME280;35209;51.050;13.678;2023-09-12T04:49:44;152604.59;;;15.58;100.00
49341;BME280;35209;51.050;13.678;2023-09-12T04:54:46;152565.72;;;15.43;100.00
49341;BME280;35209;51.050;13.678;2023-09-12T04:59:48;152542.38;;;15.34;100.00
49341;BME280;35209;51.050;13.678;2023-09-12T05:04:49;152552.75;;;15.38;100.00
49341;BME280;35209;51.050;13.678;2023-09-12T05:09:51;152585.16;;;15.51;100.00
49341;BME280;35209;51.050;13.678;2023-09-12T05:14:54;152637.00;;;15.71;100.00
49341;BME280;35209;51.050;13.678;2023-09-12T05:19:56;152664.25;;;15.82;100.00
49341;BME280;35209;51.050;13.678;2023-09-12T05:24:58;152642.22;;;15.73;100.00
49341;BME280;35209;51.050;13.678;2023-09-12T05:30:00;152665.53;;;15.82;100.00
49341;BME280;35209;51.050;13.678;2023-09-12T05:35:03;152682.38;;;15.89;100.00
49341;BME280;35209;51.050;13.678;2023-09-12T05:40:22;152670.72;;;15.84;100.00
49341;BME280;35209;51.050;13.678;2023-09-12T05:45:24;152701.84;;;15.97;100.00
49341;BME280;35209;51.050;13.678;2023-09-12T05:50:26;152748.50;;;16.15;98.60
49341;BME280;35209;51.050;13.678;2023-09-12T05:55:28;152791.28;;;16.32;97.79
49341;BME280;35209;51.050;13.678;2023-09-12T06:00:30;152875.59;;;16.65;95.94
49341;BME280;35209;51.050;13.678;2023-09-12T06:05:32;152954.75;;;16.96;93.13
49341;BME280;35209;51.050;13.678;2023-09-12T06:10:34;153035.19;;;17.28;90.87
49341;BME280;35209;51.050;13.678;2023-09-12T06:15:36;153120.81;;;17.61;86.97
49341;BME280;35209;51.050;13.678;2023-09-12T06:20:38;153170.19;;;17.81;84.71
49341;BME280;35209;51.050;13.678;2023-09-12T06:25:39;153180.59;;;17.85;81.97
49341;BME280;35209;51.050;13.678;2023-09-12T06:30:41;153237.69;;;18.07;82.62
49341;BME280;35209;51.050;13.678;2023-09-12T06:35:43;153277.91;;;18.23;80.92
49341;BME280;35209;51.050;13.678;2023-09-12T06:40:45;153333.75;;;18.45;81.63
49341;BME280;35209;51.050;13.678;2023-09-12T06:45:48;153372.72;;;18.60;78.81
49341;BME280;35209;51.050;13.678;2023-09-12T06:50:54;153442.91;;;18.88;78.32
49341;BME280;35209;51.050;13.678;2023-09-12T06:55:55;153471.50;;;18.99;77.34
49341;BME280;35209;51.050;13.678;2023-09-12T07:01:05;153497.47;;;19.09;76.88
49341;BME280;35209;51.050;13.678;2023-09-12T07:06:08;153555.91;;;19.32;76.09
49341;BME280;35209;51.050;13.678;2023-09-12T07:11:10;153618.31;;;19.57;74.91
49341;BME280;35209;51.050;13.678;2023-09-12T07:16:12;153631.34;;;19.62;74.85
49341;BME280;35209;51.050;13.678;2023-09-12T07:21:13;153632.66;;;19.62;74.13
49341;BME280;35209;51.050;13.678;2023-09-12T07:26:16;153718.41;;;19.96;73.15
49341;BME280;35209;51.050;13.678;2023-09-12T07:31:18;153788.63;;;20.24;72.87
49341;BME280;35209;51.050;13.678;2023-09-12T07:36:20;153840.59;;;20.44;69.91
49341;BME280;35209;51.050;13.678;2023-09-12T07:41:22;153909.56;;;20.71;70.70
49341;BME280;35209;51.050;13.678;2023-09-12T07:46:23;153906.97;;;20.70;69.94
49341;BME280;35209;51.050;13.678;2023-09-12T07:51:25;153964.19;;;20.92;68.66
49341;BME280;35209;51.050;13.678;2023-09-12T07:56:27;154009.72;;;21.10;67.69
49341;BME280;35209;51.050;13.678;2023-09-12T08:01:29;154081.34;;;21.38;66.83
49341;BME280;35209;51.050;13.678;2023-09-12T08:06:32;154165.91;;;21.72;64.98
49341;BME280;35209;51.050;13.678;2023-09-12T08:11:52;154246.56;;;22.03;65.00
49341;BME280;35209;51.050;13.678;2023-09-12T08:16:54;154306.50;;;22.27;63.07
49341;BME280;35209;51.050;13.678;2023-09-12T08:21:55;154354.69;;;22.46;62.76
49341;BME280;35209;51.050;13.678;2023-09-12T08:26:57;154509.66;;;23.06;60.43
49341;BME280;35209;51.050;13.678;2023-09-12T08:32:00;154553.94;;;23.24;59.24
49341;BME280;35209;51.050;13.678;2023-09-12T08:37:02;154512.31;;;23.07;59.32
49341;BME280;35209;51.050;13.678;2023-09-12T08:42:04;154561.78;;;23.27;60.67
49341;BME280;35209;51.050;13.678;2023-09-12T08:47:11;154628.22;;;23.53;59.26
49341;BME280;35209;51.050;13.678;2023-09-12T08:52:13;154761.19;;;24.05;57.50
49341;BME280;35209;51.050;13.678;2023-09-12T08:57:15;154712.94;;;23.86;57.77
49341;BME280;35209;51.050;13.678;2023-09-12T09:02:17;154783.34;;;24.13;57.08
49341;BME280;35209;51.050;13.678;2023-09-12T09:07:20;154885.06;;;24.53;55.31
49341;BME280;35209;51.050;13.678;2023-09-12T09:12:23;154958.06;;;24.82;56.61
49341;BME280;35209;51.050;13.678;2023-09-12T09:17:26;155018.00;;;25.05;52.33
49341;BME280;35209;51.050;13.678;2023-09-12T09:22:37;155065.06;;;25.24;50.26
49341;BME280;35209;51.050;13.678;2023-09-12T09:27:38;155179.81;;;25.69;48.31
49341;BME280;35209;51.050;13.678;2023-09-12T09:32:40;155335.09;;;26.29;48.06
49341;BME280;35209;51.050;13.678;2023-09-12T09:37:42;155530.97;;;27.06;45.80
49341;BME280;35209;51.050;13.678;2023-09-12T09:42:44;155686.38;;;27.66;44.08
49341;BME280;35209;51.050;13.678;2023-09-12T09:47:46;155824.94;;;28.21;41.72
49341;BME280;35209;51.050;13.678;2023-09-12T09:52:53;155835.38;;;28.25;39.69
49341;BME280;35209;51.050;13.678;2023-09-12T09:57:56;155977.84;;;28.80;41.33
49341;BME280;35209;51.050;13.678;2023-09-12T10:02:58;156095.50;;;29.26;38.30
49341;BME280;35209;51.050;13.678;2023-09-12T10:08:02;156208.00;;;29.70;38.47
49341;BME280;35209;51.050;13.678;2023-09-12T10:13:08;156222.41;;;29.76;36.34
49341;BME280;35209;51.050;13.678;2023-09-12T10:18:14;156384.59;;;30.39;37.46
49341;BME280;35209;51.050;13.678;2023-09-12T10:23:36;156478.84;;;30.76;36.27
49341;BME280;35209;51.050;13.678;2023-09-12T10:28:44;156438.25;;;30.60;36.06
49341;BME280;35209;51.050;13.678;2023-09-12T10:33:49;156241.97;;;29.83;37.44
49341;BME280;35209;51.050;13.678;2023-09-12T10:38:51;156416.00;;;30.51;38.29
49341;BME280;35209;51.050;13.678;2023-09-12T10:43:53;156537.69;;;30.99;36.74
49341;BME280;35209;51.050;13.678;2023-09-12T10:48:56;156683.03;;;31.55;35.18
49341;BME280;35209;51.050;13.678;2023-09-12T10:53:58;156677.81;;;31.53;35.46
49341;BME280;35209;51.050;13.678;2023-09-12T11:09:28;156766.88;;;31.88;35.28
49341;BME280;35209;51.050;13.678;2023-09-12T11:14:30;156819.22;;;32.08;35.30
49341;BME280;35209;51.050;13.678;2023-09-12T11:19:50;156696.09;;;31.60;35.80
49341;BME280;35209;51.050;13.678;2023-09-12T11:24:54;156785.16;;;31.95;34.90
49341;BME280;35209;51.050;13.678;2023-09-12T11:30:04;156908.31;;;32.43;35.27
49341;BME280;35209;51.050;13.678;2023-09-12T11:35:07;156851.94;;;32.21;34.00
49341;BME280;35209;51.050;13.678;2023-09-12T11:45:14;156796.94;;;32.00;34.97
49341;BME280;35209;51.050;13.678;2023-09-12T11:55:42;156829.69;;;32.12;35.86
49341;BME280;35209;51.050;13.678;2023-09-12T12:00:46;156787.78;;;31.96;34.99
49341;BME280;35209;51.050;13.678;2023-09-12T12:05:49;156827.09;;;32.11;33.65
49341;BME280;35209;51.050;13.678;2023-09-12T12:10:51;156840.16;;;32.17;35.07
49341;BME280;35209;51.050;13.678;2023-09-12T12:15:54;156607.09;;;31.26;35.95
49341;BME280;35209;51.050;13.678;2023-09-12T12:20:56;156480.13;;;30.76;36.42
49341;BME280;35209;51.050;13.678;2023-09-12T12:26:08;156426.47;;;30.55;36.80
49341;BME280;35209;51.050;13.678;2023-09-12T12:31:11;156417.31;;;30.52;36.61
49341;BME280;35209;51.050;13.678;2023-09-12T12:36:13;156344.03;;;30.23;35.20
49341;BME280;35209;51.050;13.678;2023-09-12T12:41:28;156337.53;;;30.21;34.99
49341;BME280;35209;51.050;13.678;2023-09-12T12:46:53;156329.66;;;30.18;35.81
49341;BME280;35209;51.050;13.678;2023-09-12T12:51:55;156312.66;;;30.11;36.14
49341;BME280;35209;51.050;13.678;2023-09-12T12:56:57;156269.47;;;29.94;35.70
49341;BME280;35209;51.050;13.678;2023-09-12T13:01:59;156215.84;;;29.73;36.69
49341;BME280;35209;51.050;13.678;2023-09-12T13:07:01;156265.53;;;29.92;35.63
49341;BME280;35209;51.050;13.678;2023-09-12T13:12:04;156205.38;;;29.69;35.50
49341;BME280;35209;51.050;13.678;2023-09-12T13:17:06;156227.63;;;29.78;35.52
49341;BME280;35209;51.050;13.678;2023-09-12T13:22:09;156227.63;;;29.78;34.92
49341;BME280;35209;51.050;13.678;2023-09-12T13:27:11;156164.84;;;29.53;35.76
49341;BME280;35209;51.050;13.678;2023-09-12T13:32:13;156175.34;;;29.57;35.21
49341;BME280;35209;51.050;13.678;2023-09-12T13:37:16;156206.69;;;29.70;35.61
49341;BME280;35209;51.050;13.678;2023-09-12T13:42:20;156209.34;;;29.71;36.05
49341;BME280;35209;51.050;13.678;2023-09-12T13:47:22;156177.94;;;29.58;35.83
49341;BME280;35209;51.050;13.678;2023-09-12T13:52:26;156126.88;;;29.38;36.69
49341;BME280;35209;51.050;13.678;2023-09-12T13:57:29;156197.53;;;29.66;35.99
49341;BME280;35209;51.050;13.678;2023-09-12T14:02:33;156162.19;;;29.52;35.50
49341;BME280;35209;51.050;13.678;2023-09-12T14:07:35;156164.84;;;29.53;35.00
49341;BME280;35209;51.050;13.678;2023-09-12T14:12:38;156125.59;;;29.38;35.14
49341;BME280;35209;51.050;13.678;2023-09-12T14:17:41;156132.16;;;29.40;35.32
49341;BME280;35209;51.050;13.678;2023-09-12T14:22:56;156179.25;;;29.59;34.86
49341;BME280;35209;51.050;13.678;2023-09-12T14:28:00;156141.31;;;29.44;35.23
49341;BME280;35209;51.050;13.678;2023-09-12T14:33:02;156143.91;;;29.45;35.65
49341;BME280;35209;51.050;13.678;2023-09-12T14:38:04;156108.63;;;29.31;35.66
49341;BME280;35209;51.050;13.678;2023-09-12T14:43:06;156120.38;;;29.36;35.10
49341;BME280;35209;51.050;13.678;2023-09-12T14:48:08;156087.69;;;29.23;36.00
49341;BME280;35209;51.050;13.678;2023-09-12T14:53:12;156085.09;;;29.22;35.37
49341;BME280;35209;51.050;13.678;2023-09-12T14:58:14;156107.31;;;29.31;34.97
49341;BME280;35209;51.050;13.678;2023-09-12T15:03:16;156062.88;;;29.13;36.27
49341;BME280;35209;51.050;13.678;2023-09-12T15:08:18;155958.22;;;28.73;37.63
49341;BME280;35209;51.050;13.678;2023-09-12T15:13:20;155919.03;;;28.57;37.23
49341;BME280;35209;51.050;13.678;2023-09-12T15:18:21;155954.31;;;28.71;37.97
49341;BME280;35209;51.050;13.678;2023-09-12T15:23:24;155932.09;;;28.62;38.04
49341;BME280;35209;51.050;13.678;2023-09-12T15:28:26;155947.75;;;28.69;37.66
49341;BME280;35209;51.050;13.678;2023-09-12T15:33:27;155949.09;;;28.69;40.56
49341;BME280;35209;51.050;13.678;2023-09-12T15:38:29;155879.81;;;28.42;41.20
49341;BME280;35209;51.050;13.678;2023-09-12T15:43:31;155835.38;;;28.25;40.41
49341;BME280;35209;51.050;13.678;2023-09-12T15:48:33;155813.19;;;28.16;40.21
49341;BME280;35209;51.050;13.678;2023-09-12T15:53:35;155814.47;;;28.16;40.36
49341;BME280;35209;51.050;13.678;2023-09-12T15:58:37;155818.38;;;28.18;39.95
49341;BME280;35209;51.050;13.678;2023-09-12T16:03:39;155848.44;;;28.30;39.05
49341;BME280;35209;51.050;13.678;2023-09-12T16:08:41;155818.38;;;28.18;39.83
49341;BME280;35209;51.050;13.678;2023-09-12T16:13:42;155797.47;;;28.10;39.97
49341;BME280;35209;51.050;13.678;2023-09-12T16:18:45;155797.47;;;28.10;40.35
49341;BME280;35209;51.050;13.678;2023-09-12T16:23:46;155777.84;;;28.02;40.39
49341;BME280;35209;51.050;13.678;2023-09-12T16:28:48;155757.00;;;27.94;41.70
49341;BME280;35209;51.050;13.678;2023-09-12T16:33:50;155745.25;;;27.89;42.95
49341;BME280;35209;51.050;13.678;2023-09-12T16:38:52;155712.59;;;27.77;43.35
49341;BME280;35209;51.050;13.678;2023-09-12T16:43:55;155613.28;;;27.38;47.43
49341;BME280;35209;51.050;13.678;2023-09-12T16:48:57;155584.53;;;27.27;50.73
49341;BME280;35209;51.050;13.678;2023-09-12T16:53:59;155528.31;;;27.05;53.19
49341;BME280;35209;51.050;13.678;2023-09-12T16:59:01;155444.81;;;26.72;53.93
49341;BME280;35209;51.050;13.678;2023-09-12T17:04:03;155371.72;;;26.44;55.22
49341;BME280;35209;51.050;13.678;2023-09-12T17:09:06;155319.47;;;26.23;56.51
49341;BME280;35209;51.050;13.678;2023-09-12T17:14:08;155249.00;;;25.96;57.62
49341;BME280;35209;51.050;13.678;2023-09-12T17:19:12;155170.69;;;25.65;58.63
49341;BME280;35209;51.050;13.678;2023-09-12T17:24:15;155156.34;;;25.59;58.21
49341;BME280;35209;51.050;13.678;2023-09-12T17:29:16;155075.44;;;25.28;57.80
49341;BME280;35209;51.050;13.678;2023-09-12T17:34:18;155037.63;;;25.13;58.26
49341;BME280;35209;51.050;13.678;2023-09-12T17:39:20;154978.91;;;24.90;58.95
49341;BME280;35209;51.050;13.678;2023-09-12T17:44:22;154904.59;;;24.61;59.01
49341;BME280;35209;51.050;13.678;2023-09-12T17:49:27;154888.97;;;24.55;60.62
49341;BME280;35209;51.050;13.678;2023-09-12T17:54:32;154881.13;;;24.52;61.47
49341;BME280;35209;51.050;13.678;2023-09-12T17:59:34;154789.84;;;24.16;62.02
49341;BME280;35209;51.050;13.678;2023-09-12T18:04:36;154705.16;;;23.83;63.09
49341;BME280;35209;51.050;13.678;2023-09-12T18:09:38;154776.81;;;24.11;62.57
49341;BME280;35209;51.050;13.678;2023-09-12T18:14:40;154718.19;;;23.88;63.58
49341;BME280;35209;51.050;13.678;2023-09-12T18:19:41;154646.47;;;23.60;63.85
49341;BME280;35209;51.050;13.678;2023-09-12T18:24:43;154598.25;;;23.41;64.91
49341;BME280;35209;51.050;13.678;2023-09-12T18:29:45;154569.63;;;23.30;65.38
49341;BME280;35209;51.050;13.678;2023-09-12T18:34:47;154574.81;;;23.32;65.43
49341;BME280;35209;51.050;13.678;2023-09-12T18:39:49;154514.91;;;23.08;66.04
49341;BME280;35209;51.050;13.678;2023-09-12T18:44:51;154454.97;;;22.85;66.41
49341;BME280;35209;51.050;13.678;2023-09-12T18:49:53;154447.13;;;22.82;68.23
49341;BME280;35209;51.050;13.678;2023-09-12T18:54:56;154436.72;;;22.78;68.34
49341;BME280;35209;51.050;13.678;2023-09-12T18:59:58;154418.47;;;22.71;68.38
49341;BME280;35209;51.050;13.678;2023-09-12T19:05:00;154404.16;;;22.65;68.33
49341;BME280;35209;51.050;13.678;2023-09-12T19:10:05;154350.75;;;22.44;68.19
49341;BME280;35209;51.050;13.678;2023-09-12T19:15:09;154415.88;;;22.70;65.15
49341;BME280;35209;51.050;13.678;2023-09-12T19:20:11;154438.00;;;22.78;66.57
49341;BME280;35209;51.050;13.678;2023-09-12T19:25:16;154327.31;;;22.35;67.70
49341;BME280;35209;51.050;13.678;2023-09-12T19:30:18;154229.69;;;21.97;69.18
49341;BME280;35209;51.050;13.678;2023-09-12T19:35:20;154267.41;;;22.11;69.45
49341;BME280;35209;51.050;13.678;2023-09-12T19:40:22;154207.56;;;21.88;70.11
49341;BME280;35209;51.050;13.678;2023-09-12T19:45:28;154163.31;;;21.71;70.46
49341;BME280;35209;51.050;13.678;2023-09-12T19:50:30;154175.00;;;21.75;71.22
49341;BME280;35209;51.050;13.678;2023-09-12T19:55:35;154142.47;;;21.62;70.98
49341;BME280;35209;51.050;13.678;2023-09-12T20:00:37;154106.06;;;21.48;71.77
49341;BME280;35209;51.050;13.678;2023-09-12T20:05:39;154130.78;;;21.58;71.93
49341;BME280;35209;51.050;13.678;2023-09-12T20:10:41;154138.59;;;21.61;72.08
49341;BME280;35209;51.050;13.678;2023-09-12T20:15:43;154048.75;;;21.26;73.16
49341;BME280;35209;51.050;13.678;2023-09-12T20:20:46;153995.41;;;21.05;73.96
49341;BME280;35209;51.050;13.678;2023-09-12T20:25:50;154072.22;;;21.35;74.53
49341;BME280;35209;51.050;13.678;2023-09-12T20:30:52;154063.13;;;21.31;74.43
49341;BME280;35209;51.050;13.678;2023-09-12T20:35:58;153960.31;;;20.91;74.92
49341;BME280;35209;51.050;13.678;2023-09-12T20:41:05;153935.59;;;20.81;75.17
49341;BME280;35209;51.050;13.678;2023-09-12T20:46:07;153965.50;;;20.93;74.45
49341;BME280;35209;51.050;13.678;2023-09-12T20:51:11;153878.38;;;20.59;76.24
49341;BME280;35209;51.050;13.678;2023-09-12T20:56:16;153890.09;;;20.63;76.63
49341;BME280;35209;51.050;13.678;2023-09-12T21:01:18;153878.38;;;20.59;77.09
49341;BME280;35209;51.050;13.678;2023-09-12T21:06:19;153903.09;;;20.69;77.70
49341;BME280;35209;51.050;13.678;2023-09-12T21:11:21;153856.28;;;20.50;78.31
49341;BME280;35209;51.050;13.678;2023-09-12T21:16:23;153848.41;;;20.47;79.51
49341;BME280;35209;51.050;13.678;2023-09-12T21:21:25;153792.50;;;20.25;79.52
49341;BME280;35209;51.050;13.678;2023-09-12T21:26:27;153808.09;;;20.31;79.12
49341;BME280;35209;51.050;13.678;2023-09-12T21:31:28;153778.22;;;20.20;79.13
49341;BME280;35209;51.050;13.678;2023-09-12T21:36:30;153736.59;;;20.03;79.22
49341;BME280;35209;51.050;13.678;2023-09-12T21:41:32;153750.91;;;20.09;80.97
49341;BME280;35209;51.050;13.678;2023-09-12T21:46:33;153731.44;;;20.01;81.58
49341;BME280;35209;51.050;13.678;2023-09-12T21:51:36;153717.09;;;19.96;81.70
49341;BME280;35209;51.050;13.678;2023-09-12T21:56:39;153748.31;;;20.08;81.82
49341;BME280;35209;51.050;13.678;2023-09-12T22:01:41;153696.28;;;19.87;82.92
49341;BME280;35209;51.050;13.678;2023-09-12T22:06:43;153724.91;;;19.99;82.10
49341;BME280;35209;51.050;13.678;2023-09-12T22:11:45;153645.63;;;19.68;83.43
49341;BME280;35209;51.050;13.678;2023-09-12T22:16:47;153701.53;;;19.89;83.21
49341;BME280;35209;51.050;13.678;2023-09-12T22:21:49;153611.78;;;19.54;83.99
49341;BME280;35209;51.050;13.678;2023-09-12T22:26:50;153588.41;;;19.45;85.26
49341;BME280;35209;51.050;13.678;2023-09-12T22:31:53;153636.53;;;19.64;86.47
49341;BME280;35209;51.050;13.678;2023-09-12T22:36:56;153648.22;;;19.69;86.41
49341;BME280;35209;51.050;13.678;2023-09-12T22:41:58;153607.91;;;19.53;86.83
49341;BME280;35209;51.050;13.678;2023-09-12T22:47:00;153600.09;;;19.50;87.54
49341;BME280;35209;51.050;13.678;2023-09-12T22:52:02;153602.69;;;19.51;87.80
49341;BME280;35209;51.050;13.678;2023-09-12T22:57:05;153540.34;;;19.26;88.96
49341;BME280;35209;51.050;13.678;2023-09-12T23:02:07;153566.31;;;19.36;89.15
49341;BME280;35209;51.050;13.678;2023-09-12T23:07:08;153529.94;;;19.22;90.30
49341;BME280;35209;51.050;13.678;2023-09-12T23:12:10;153559.81;;;19.34;89.83
49341;BME280;35209;51.050;13.678;2023-09-12T23:17:12;153529.94;;;19.22;90.37
49341;BME280;35209;51.050;13.678;2023-09-12T23:22:14;153458.47;;;18.94;91.91
49341;BME280;35209;51.050;13.678;2023-09-12T23:27:15;153414.31;;;18.77;93.53
49341;BME280;35209;51.050;13.678;2023-09-12T23:32:17;153389.59;;;18.67;93.71
49341;BME280;35209;51.050;13.678;2023-09-12T23:37:19;153400.03;;;18.71;94.15
49341;BME280;35209;51.050;13.678;2023-09-12T23:42:21;153435.09;;;18.85;93.93
49341;BME280;35209;51.050;13.678;2023-09-12T23:47:22;153441.63;;;18.87;94.01
49341;BME280;35209;51.050;13.678;2023-09-12T23:52:24;153479.25;;;19.02;93.46
49341;BME280;35209;51.050;13.678;2023-09-12T23:57:27;153477.97;;;19.02;93.26
